Time,TemperatureF,DewpointF,PressureIn,WindDirection,WindDirectionDegrees,WindSpeedMPH,WindSpeedGustMPH,Humidity,HourlyPrecipIn,Conditions,Clouds,dailyrainin,SoftwareType,DateUTC
2013-04-23 00:02:00,43.8,36.4,30.49,North,5,0.0,0.0,75,0.00,,,0.00,Wunderground v.1.15,2013-04-23 07:02:00,
2013-04-23 00:07:00,43.7,36.6,30.50,North,5,0.0,0.0,76,0.00,,,0.00,Wunderground v.1.15,2013-04-23 07:07:00,
2013-04-23 00:13:00,43.6,36.5,30.49,North,5,0.0,0.0,76,0.00,,,0.00,Wunderground v.1.15,2013-04-23 07:13:00,
2013-04-23 00:18:00,43.4,36.3,30.49,North,9,0.0,0.0,76,0.00,,,0.00,Wunderground v.1.15,2013-04-23 07:18:00,
2013-04-23 00:24:00,43.3,35.9,30.50,North,360,0.0,0.0,75,0.00,,,0.00,Wunderground v.1.15,2013-04-23 07:24:00,
2013-04-23 00:29:00,43.4,36.0,30.50,North,355,1.0,1.0,75,0.00,,,0.00,Wunderground v.1.15,2013-04-23 07:29:00,
2013-04-23 00:35:00,43.4,36.0,30.50,North,355,0.0,1.0,75,0.00,,,0.00,Wunderground v.1.15,2013-04-23 07:35:00,
2013-04-23 00:40:00,43.5,36.1,30.49,North,355,0.0,0.0,75,0.00,,,0.00,Wunderground v.1.15,2013-04-23 07:40:00,
2013-04-23 00:46:00,43.1,36.7,30.49,North,355,0.0,0.0,78,0.00,,,0.00,Wunderground v.1.15,2013-04-23 07:46:00,
2013-04-23 00:52:00,42.8,36.4,30.49,North,355,0.0,0.0,78,0.00,,,0.00,Wunderground v.1.15,2013-04-23 07:52:00,
2013-04-23 00:57:00,42.6,35.9,30.49,North,355,0.0,0.0,77,0.00,,,0.00,Wunderground v.1.15,2013-04-23 07:57:00,
2013-04-23 01:03:00,42.6,35.9,30.49,North,355,0.0,0.0,77,0.00,,,0.00,Wunderground v.1.15,2013-04-23 08:03:00,
2013-04-23 01:08:00,42.6,36.5,30.49,North,355,0.0,0.0,79,0.00,,,0.00,Wunderground v.1.15,2013-04-23 08:08:00,
2013-04-23 01:14:00,42.3,36.3,30.49,North,355,0.0,0.0,79,0.00,,,0.00,Wunderground v.1.15,2013-04-23 08:14:00,
2013-04-23 01:19:00,42.0,35.6,30.49,North,349,0.0,0.0,78,0.00,,,0.00,Wunderground v.1.15,2013-04-23 08:19:00,
2013-04-23 01:25:00,41.9,35.2,30.49,NNW,331,3.0,3.0,77,0.00,,,0.00,Wunderground v.1.15,2013-04-23 08:25:00,
2013-04-23 01:30:00,41.9,34.2,30.49,NNW,333,2.0,2.0,74,0.00,,,0.00,Wunderground v.1.15,2013-04-23 08:30:00,
2013-04-23 01:36:00,42.0,34.3,30.49,NW,326,3.0,3.0,74,0.00,,,0.00,Wunderground v.1.15,2013-04-23 08:36:00,
2013-04-23 01:41:00,42.0,34.3,30.49,NW,325,2.0,3.0,74,0.00,,,0.00,Wunderground v.1.15,2013-04-23 08:41:00,
2013-04-23 01:47:00,41.9,34.9,30.49,NNW,336,1.0,4.0,76,0.00,,,0.00,Wunderground v.1.15,2013-04-23 08:47:00,
2013-04-23 01:52:00,41.7,34.7,30.48,NW,321,4.0,4.0,76,0.00,,,0.00,Wunderground v.1.15,2013-04-23 08:52:00,
2013-04-23 01:58:00,41.5,34.8,30.48,NW,318,1.0,4.0,77,0.00,,,0.00,Wunderground v.1.15,2013-04-23 08:58:00,
2013-04-23 02:03:00,41.4,34.7,30.48,NW,324,4.0,4.0,77,0.00,,,0.00,Wunderground v.1.15,2013-04-23 09:03:00,
2013-04-23 02:08:00,41.4,34.7,30.48,NW,319,2.0,5.0,77,0.00,,,0.00,Wunderground v.1.15,2013-04-23 09:08:00,
2013-04-23 02:13:00,41.5,34.8,30.48,NNW,333,0.0,4.0,77,0.00,,,0.00,Wunderground v.1.15,2013-04-23 09:13:00,
2013-04-23 02:18:00,41.5,34.8,30.48,NNW,333,0.0,4.0,77,0.00,,,0.00,Wunderground v.1.15,2013-04-23 09:18:00,
2013-04-23 02:23:00,41.4,34.7,30.48,NNW,332,0.0,0.0,77,0.00,,,0.00,Wunderground v.1.15,2013-04-23 09:23:00,
2013-04-23 02:28:00,41.3,35.0,30.47,NNW,332,0.0,0.0,78,0.00,,,0.00,Wunderground v.1.15,2013-04-23 09:28:00,
2013-04-23 02:34:00,41.1,35.1,30.48,NNW,332,0.0,0.0,79,0.00,,,0.00,Wunderground v.1.15,2013-04-23 09:34:00,
2013-04-23 02:39:00,40.9,35.5,30.47,NNW,332,0.0,0.0,81,0.00,,,0.00,Wunderground v.1.15,2013-04-23 09:39:00,
2013-04-23 02:44:00,40.8,35.7,30.47,NNW,332,0.0,0.0,82,0.00,,,0.00,Wunderground v.1.15,2013-04-23 09:44:00,
2013-04-23 02:49:00,40.6,35.5,30.47,NNW,332,0.0,0.0,82,0.00,,,0.00,Wunderground v.1.15,2013-04-23 09:49:00,
2013-04-23 02:54:00,40.6,35.8,30.47,NNW,332,0.0,0.0,83,0.00,,,0.00,Wunderground v.1.15,2013-04-23 09:54:00,
2013-04-23 02:59:00,40.4,35.6,30.47,NNW,332,0.0,0.0,83,0.00,,,0.00,Wunderground v.1.15,2013-04-23 09:59:00,
2013-04-23 03:04:00,40.2,35.8,30.47,NNW,331,0.0,0.0,84,0.00,,,0.00,Wunderground v.1.15,2013-04-23 10:04:00,
2013-04-23 03:09:00,40.2,35.8,30.47,NNW,332,0.0,0.0,84,0.00,,,0.00,Wunderground v.1.15,2013-04-23 10:09:00,
2013-04-23 03:14:00,40.2,35.4,30.46,NNW,333,0.0,0.0,83,0.00,,,0.00,Wunderground v.1.15,2013-04-23 10:14:00,
2013-04-23 03:19:00,40.2,35.4,30.46,NNW,337,0.0,3.0,83,0.00,,,0.00,Wunderground v.1.15,2013-04-23 10:19:00,
2013-04-23 03:24:00,40.0,35.3,30.46,NNW,337,0.0,0.0,83,0.00,,,0.00,Wunderground v.1.15,2013-04-23 10:24:00,
2013-04-23 03:29:00,39.8,35.1,30.46,NNW,336,0.0,0.0,83,0.00,,,0.00,Wunderground v.1.15,2013-04-23 10:29:00,
2013-04-23 03:34:00,39.8,35.1,30.46,NNW,336,0.0,0.0,83,0.00,,,0.00,Wunderground v.1.15,2013-04-23 10:34:00,
2013-04-23 03:39:00,39.7,34.7,30.46,NNW,336,0.0,0.0,82,0.00,,,0.00,Wunderground v.1.15,2013-04-23 10:39:00,
2013-04-23 03:44:00,39.5,34.2,30.46,NNW,336,0.0,0.0,81,0.00,,,0.00,Wunderground v.1.15,2013-04-23 10:44:00,
2013-04-23 03:49:00,39.4,34.1,30.45,NNW,336,0.0,0.0,81,0.00,,,0.00,Wunderground v.1.15,2013-04-23 10:49:00,
2013-04-23 03:54:00,39.2,34.2,30.46,NNW,336,0.0,0.0,82,0.00,,,0.00,Wunderground v.1.15,2013-04-23 10:54:00,
2013-04-23 03:59:00,39.2,34.5,30.46,NNW,336,0.0,0.0,83,0.00,,,0.00,Wunderground v.1.15,2013-04-23 10:59:00,
2013-04-23 04:04:00,39.0,34.3,30.46,NNW,336,0.0,0.0,83,0.00,,,0.00,Wunderground v.1.15,2013-04-23 11:04:00,
2013-04-23 04:09:00,38.8,34.1,30.46,NNW,336,0.0,0.0,83,0.00,,,0.00,Wunderground v.1.15,2013-04-23 11:09:00,
2013-04-23 04:14:00,38.5,33.8,30.46,NNW,336,0.0,0.0,83,0.00,,,0.00,Wunderground v.1.15,2013-04-23 11:14:00,
2013-04-23 04:19:00,38.3,33.6,30.46,NNW,336,0.0,0.0,83,0.00,,,0.00,Wunderground v.1.15,2013-04-23 11:19:00,
2013-04-23 04:24:00,38.1,33.7,30.46,NNW,336,0.0,0.0,84,0.00,,,0.00,Wunderground v.1.15,2013-04-23 11:24:00,
2013-04-23 04:29:00,37.8,33.4,30.46,NNW,336,0.0,0.0,84,0.00,,,0.00,Wunderground v.1.15,2013-04-23 11:29:00,
2013-04-23 04:34:00,37.9,34.1,30.46,NNW,336,0.0,0.0,86,0.00,,,0.00,Wunderground v.1.15,2013-04-23 11:34:00,
2013-04-23 04:39:00,38.0,33.9,30.46,NNW,336,0.0,0.0,85,0.00,,,0.00,Wunderground v.1.15,2013-04-23 11:39:00,
2013-04-23 04:44:00,38.3,34.5,30.46,NNW,336,0.0,0.0,86,0.00,,,0.00,Wunderground v.1.15,2013-04-23 11:44:00,
2013-04-23 04:49:00,38.3,34.5,30.46,NNW,336,0.0,1.0,86,0.00,,,0.00,Wunderground v.1.15,2013-04-23 11:49:00,
2013-04-23 04:54:00,38.3,34.5,30.46,NNW,335,0.0,3.0,86,0.00,,,0.00,Wunderground v.1.15,2013-04-23 11:54:00,
2013-04-23 04:59:00,38.3,34.5,30.46,NNW,334,0.0,3.0,86,0.00,,,0.00,Wunderground v.1.15,2013-04-23 11:59:00,
2013-04-23 05:04:00,38.1,34.3,30.46,NNW,334,0.0,0.0,86,0.00,,,0.00,Wunderground v.1.15,2013-04-23 12:04:00,
2013-04-23 05:09:00,38.0,34.2,30.46,NNW,333,0.0,0.0,86,0.00,,,0.00,Wunderground v.1.15,2013-04-23 12:09:00,
2013-04-23 05:14:00,38.0,34.2,30.45,NNW,333,0.0,0.0,86,0.00,,,0.00,Wunderground v.1.15,2013-04-23 12:14:00,
2013-04-23 05:19:00,38.0,34.2,30.45,NNW,333,0.0,0.0,86,0.00,,,0.00,Wunderground v.1.15,2013-04-23 12:19:00,
2013-04-23 05:24:00,38.0,34.2,30.45,NNW,332,0.0,2.0,86,0.00,,,0.00,Wunderground v.1.15,2013-04-23 12:24:00,
2013-04-23 05:29:00,38.0,34.2,30.45,NNW,331,0.0,2.0,86,0.00,,,0.00,Wunderground v.1.15,2013-04-23 12:29:00,
2013-04-23 05:34:00,37.9,34.1,30.45,NNW,331,0.0,0.0,86,0.00,,,0.00,Wunderground v.1.15,2013-04-23 12:34:00,
2013-04-23 05:39:00,37.8,34.0,30.45,NNW,333,0.0,0.0,86,0.00,,,0.00,Wunderground v.1.15,2013-04-23 12:39:00,
2013-04-23 05:44:00,37.8,34.0,30.45,NNW,333,0.0,1.0,86,0.00,,,0.00,Wunderground v.1.15,2013-04-23 12:44:00,
2013-04-23 05:49:00,37.7,33.6,30.45,NNW,333,0.0,1.0,85,0.00,,,0.00,Wunderground v.1.15,2013-04-23 12:49:00,
2013-04-23 05:54:00,37.6,33.8,30.45,NNW,333,0.0,0.0,86,0.00,,,0.00,Wunderground v.1.15,2013-04-23 12:54:00,
2013-04-23 05:59:00,37.4,33.6,30.44,NNW,333,0.0,0.0,86,0.00,,,0.00,Wunderground v.1.15,2013-04-23 12:59:00,
2013-04-23 06:04:00,37.5,34.0,30.44,NNW,333,0.0,0.0,87,0.00,,,0.00,Wunderground v.1.15,2013-04-23 13:04:00,
2013-04-23 06:09:00,37.5,34.3,30.44,NNW,333,0.0,0.0,88,0.00,,,0.00,Wunderground v.1.15,2013-04-23 13:09:00,
2013-04-23 06:14:00,37.2,33.7,30.44,NNW,333,0.0,0.0,87,0.00,,,0.00,Wunderground v.1.15,2013-04-23 13:14:00,
2013-04-23 06:19:00,37.3,34.1,30.44,NNW,333,0.0,0.0,88,0.00,,,0.00,Wunderground v.1.15,2013-04-23 13:19:00,
2013-04-23 06:24:00,37.6,34.4,30.44,NNW,333,0.0,0.0,88,0.00,,,0.00,Wunderground v.1.15,2013-04-23 13:24:00,
2013-04-23 06:29:00,37.7,34.8,30.44,NNW,331,0.0,0.0,89,0.00,,,0.00,Wunderground v.1.15,2013-04-23 13:29:00,
2013-04-23 06:34:00,37.8,34.8,30.44,NNW,331,0.0,0.0,89,0.00,,,0.00,Wunderground v.1.15,2013-04-23 13:34:00,
2013-04-23 06:39:00,38.0,35.0,30.44,NNW,331,0.0,0.0,89,0.00,,,0.00,Wunderground v.1.15,2013-04-23 13:39:00,
2013-04-23 06:44:00,38.0,35.0,30.44,NNW,331,0.0,0.0,89,0.00,,,0.00,Wunderground v.1.15,2013-04-23 13:44:00,
2013-04-23 06:49:00,37.9,34.9,30.44,NNW,331,0.0,0.0,89,0.00,,,0.00,Wunderground v.1.15,2013-04-23 13:49:00,
2013-04-23 06:54:00,38.0,35.3,30.44,NNW,330,0.0,0.0,90,0.00,,,0.00,Wunderground v.1.15,2013-04-23 13:54:00,
2013-04-23 06:59:00,38.2,35.5,30.43,NNW,330,0.0,0.0,90,0.00,,,0.00,Wunderground v.1.15,2013-04-23 13:59:00,
2013-04-23 07:04:00,38.5,35.5,30.43,NNW,330,0.0,0.0,89,0.00,,,0.00,Wunderground v.1.15,2013-04-23 14:04:00,
2013-04-23 07:09:00,38.6,35.6,30.43,NNW,330,0.0,0.0,89,0.00,,,0.00,Wunderground v.1.15,2013-04-23 14:09:00,
2013-04-23 07:14:00,38.8,35.8,30.43,NNW,330,0.0,0.0,89,0.00,,,0.00,Wunderground v.1.15,2013-04-23 14:14:00,
2013-04-23 07:19:00,38.9,35.9,30.43,NNW,330,0.0,0.0,89,0.00,,,0.00,Wunderground v.1.15,2013-04-23 14:19:00,
2013-04-23 07:24:00,39.1,36.1,30.43,NNW,330,0.0,0.0,89,0.00,,,0.00,Wunderground v.1.15,2013-04-23 14:24:00,
2013-04-23 07:29:00,39.7,36.7,30.43,NNW,330,0.0,0.0,89,0.00,,,0.00,Wunderground v.1.15,2013-04-23 14:29:00,
2013-04-23 07:34:00,40.1,36.8,30.43,NNW,330,0.0,0.0,88,0.00,,,0.00,Wunderground v.1.15,2013-04-23 14:34:00,
2013-04-23 07:39:00,40.1,36.8,30.43,NNW,330,0.0,0.0,88,0.00,,,0.00,Wunderground v.1.15,2013-04-23 14:39:00,
2013-04-23 07:44:00,40.4,37.1,30.43,NNW,330,0.0,0.0,88,0.00,,,0.00,Wunderground v.1.15,2013-04-23 14:44:00,
2013-04-23 07:49:00,41.2,37.9,30.43,NNW,330,0.0,0.0,88,0.00,,,0.00,Wunderground v.1.15,2013-04-23 14:49:00,
2013-04-23 07:54:00,41.4,37.2,30.42,NNW,329,0.0,0.0,85,0.00,,,0.00,Wunderground v.1.15,2013-04-23 14:54:00,
2013-04-23 07:59:00,41.7,37.8,30.42,NW,323,0.0,0.0,86,0.00,,,0.00,Wunderground v.1.15,2013-04-23 14:59:00,
2013-04-23 08:05:00,42.0,37.8,30.42,NNW,327,0.0,0.0,85,0.00,,,0.00,Wunderground v.1.15,2013-04-23 15:05:00,
2013-04-23 08:10:00,42.2,38.0,30.42,NNE,24,0.0,0.0,85,0.00,,,0.00,Wunderground v.1.15,2013-04-23 15:10:00,
2013-04-23 08:15:00,42.3,38.1,30.42,NNE,30,0.0,1.0,85,0.00,,,0.00,Wunderground v.1.15,2013-04-23 15:15:00,
2013-04-23 08:20:00,42.9,38.4,30.42,NNE,32,0.0,0.0,84,0.00,,,0.00,Wunderground v.1.15,2013-04-23 15:20:00,
2013-04-23 08:25:00,43.2,38.7,30.41,NE,42,0.0,0.0,84,0.00,,,0.00,Wunderground v.1.15,2013-04-23 15:25:00,
2013-04-23 08:30:00,43.3,38.8,30.42,NE,42,0.0,0.0,84,0.00,,,0.00,Wunderground v.1.15,2013-04-23 15:30:00,
2013-04-23 08:35:00,43.7,39.2,30.41,NE,45,0.0,0.0,84,0.00,,,0.00,Wunderground v.1.15,2013-04-23 15:35:00,
2013-04-23 08:40:00,43.9,39.4,30.41,NE,46,0.0,0.0,84,0.00,,,0.00,Wunderground v.1.15,2013-04-23 15:40:00,
2013-04-23 08:45:00,44.5,39.0,30.41,NE,49,0.0,0.0,81,0.00,,,0.00,Wunderground v.1.15,2013-04-23 15:45:00,
2013-04-23 08:50:00,44.3,38.2,30.41,SSW,201,0.0,1.0,79,0.00,,,0.00,Wunderground v.1.15,2013-04-23 15:50:00,
2013-04-23 08:55:00,45.0,38.2,30.41,SSW,200,0.0,1.0,77,0.00,,,0.00,Wunderground v.1.15,2013-04-23 15:55:00,
2013-04-23 09:00:00,45.8,38.3,30.41,SSW,196,0.0,1.0,75,0.00,,,0.00,Wunderground v.1.15,2013-04-23 16:00:00,
2013-04-23 09:05:00,45.8,38.3,30.41,SSW,192,0.0,1.0,75,0.00,,,0.00,Wunderground v.1.15,2013-04-23 16:05:00,
2013-04-23 09:10:00,46.1,39.0,30.40,South,190,0.0,0.0,76,0.00,,,0.00,Wunderground v.1.15,2013-04-23 16:10:00,
2013-04-23 09:15:00,46.8,38.6,30.40,South,189,0.0,0.0,73,0.00,,,0.00,Wunderground v.1.15,2013-04-23 16:15:00,
2013-04-23 09:20:00,47.5,38.9,30.40,South,175,0.0,0.0,72,0.00,,,0.00,Wunderground v.1.15,2013-04-23 16:20:00,
2013-04-23 09:25:00,48.1,38.0,30.40,SW,214,0.0,2.0,68,0.00,,,0.00,Wunderground v.1.15,2013-04-23 16:25:00,
2013-04-23 09:30:00,48.3,38.6,30.41,West,272,0.0,2.0,69,0.00,,,0.00,Wunderground v.1.15,2013-04-23 16:30:00,
2013-04-23 09:35:00,47.7,40.8,30.40,WNW,295,0.0,3.0,77,0.00,,,0.00,Wunderground v.1.15,2013-04-23 16:35:00,
2013-04-23 09:40:00,49.0,40.4,30.40,ESE,107,0.0,0.0,72,0.00,,,0.00,Wunderground v.1.15,2013-04-23 16:40:00,
2013-04-23 09:45:00,49.3,39.6,30.40,SE,142,1.0,3.0,69,0.00,,,0.00,Wunderground v.1.15,2013-04-23 16:45:00,
2013-04-23 09:50:00,49.3,39.2,30.40,SSE,150,0.0,2.0,68,0.00,,,0.00,Wunderground v.1.15,2013-04-23 16:50:00,
2013-04-23 09:55:00,49.6,40.2,30.39,SE,126,3.0,3.0,70,0.00,,,0.00,Wunderground v.1.15,2013-04-23 16:55:00,
2013-04-23 10:00:00,48.7,39.7,30.39,ESE,114,2.0,2.0,71,0.00,,,0.00,Wunderground v.1.15,2013-04-23 17:00:00,
2013-04-23 10:05:00,48.1,39.5,30.39,SE,130,3.0,5.0,72,0.00,,,0.00,Wunderground v.1.15,2013-04-23 17:05:00,
2013-04-23 10:10:00,49.1,38.2,30.40,SE,134,0.0,2.0,66,0.00,,,0.00,Wunderground v.1.15,2013-04-23 17:10:00,
2013-04-23 10:15:00,49.0,37.7,30.39,SSE,157,0.0,3.0,65,0.00,,,0.00,Wunderground v.1.15,2013-04-23 17:15:00,
2013-04-23 10:20:00,49.2,38.3,30.39,SE,137,0.0,2.0,66,0.00,,,0.00,Wunderground v.1.15,2013-04-23 17:20:00,
2013-04-23 10:25:00,49.2,38.3,30.39,SE,145,0.0,2.0,66,0.00,,,0.00,Wunderground v.1.15,2013-04-23 17:25:00,
2013-04-23 10:30:00,49.1,37.4,30.39,SE,144,0.0,0.0,64,0.00,,,0.00,Wunderground v.1.15,2013-04-23 17:30:00,
2013-04-23 10:35:00,49.6,37.1,30.39,SE,146,0.0,1.0,62,0.00,,,0.00,Wunderground v.1.15,2013-04-23 17:35:00,
2013-04-23 10:40:00,49.8,39.7,30.40,SE,136,0.0,1.0,68,0.00,,,0.00,Wunderground v.1.15,2013-04-23 17:40:00,
2013-04-23 10:46:00,49.4,39.7,30.40,ESE,116,0.0,2.0,69,0.00,,,0.00,Wunderground v.1.15,2013-04-23 17:46:00,
2013-04-23 10:51:00,49.6,38.3,30.40,ESE,106,0.0,0.0,65,0.00,,,0.00,Wunderground v.1.15,2013-04-23 17:51:00,
2013-04-23 10:56:00,49.8,38.5,30.40,ESE,106,0.0,2.0,65,0.00,,,0.00,Wunderground v.1.15,2013-04-23 17:56:00,
2013-04-23 11:01:00,50.2,37.7,30.41,ESE,105,1.0,1.0,62,0.00,,,0.00,Wunderground v.1.15,2013-04-23 18:01:00,
2013-04-23 11:06:00,50.6,36.8,30.41,ESE,102,1.0,2.0,59,0.00,,,0.00,Wunderground v.1.15,2013-04-23 18:06:00,
2013-04-23 11:11:00,52.0,35.9,30.40,ESE,102,0.0,0.0,54,0.00,,,0.00,Wunderground v.1.15,2013-04-23 18:11:00,
2013-04-23 11:16:00,53.1,33.4,30.40,ESE,102,0.0,0.0,47,0.00,,,0.00,Wunderground v.1.15,2013-04-23 18:16:00,
2013-04-23 11:21:00,53.0,33.3,30.40,East,101,0.0,1.0,47,0.00,,,0.00,Wunderground v.1.15,2013-04-23 18:21:00,
2013-04-23 11:26:00,53.5,33.7,30.40,ENE,63,1.0,3.0,47,0.00,,,0.00,Wunderground v.1.15,2013-04-23 18:26:00,
2013-04-23 11:31:00,53.2,34.5,30.40,ENE,61,0.0,1.0,49,0.00,,,0.00,Wunderground v.1.15,2013-04-23 18:31:00,
2013-04-23 11:36:00,54.3,36.0,30.40,ENE,60,0.0,1.0,50,0.00,,,0.00,Wunderground v.1.15,2013-04-23 18:36:00,
2013-04-23 11:42:00,53.9,37.1,30.39,ENE,59,0.0,0.0,53,0.00,,,0.00,Wunderground v.1.15,2013-04-23 18:42:00,
2013-04-23 11:47:00,54.3,38.0,30.39,ENE,67,0.0,1.0,54,0.00,,,0.00,Wunderground v.1.15,2013-04-23 18:47:00,
2013-04-23 11:52:00,53.7,37.4,30.39,ENE,72,0.0,3.0,54,0.00,,,0.00,Wunderground v.1.15,2013-04-23 18:52:00,
2013-04-23 11:57:00,53.9,38.6,30.39,East,93,1.0,3.0,56,0.00,,,0.00,Wunderground v.1.15,2013-04-23 18:57:00,
2013-04-23 12:02:00,53.6,37.8,30.38,ESE,115,0.0,4.0,55,0.00,,,0.00,Wunderground v.1.15,2013-04-23 19:02:00,
2013-04-23 12:07:00,54.6,37.3,30.39,SE,126,1.0,4.0,52,0.00,,,0.00,Wunderground v.1.15,2013-04-23 19:07:00,
2013-04-23 12:12:00,55.3,37.5,30.39,ESE,122,0.0,1.0,51,0.00,,,0.00,Wunderground v.1.15,2013-04-23 19:12:00,
2013-04-23 12:17:00,55.7,37.3,30.38,SE,127,0.0,1.0,50,0.00,,,0.00,Wunderground v.1.15,2013-04-23 19:17:00,
2013-04-23 12:22:00,56.0,37.1,30.38,ESE,123,1.0,2.0,49,0.00,,,0.00,Wunderground v.1.15,2013-04-23 19:22:00,
2013-04-23 12:27:00,56.9,38.4,30.38,ESE,105,0.0,3.0,50,0.00,,,0.00,Wunderground v.1.15,2013-04-23 19:27:00,
2013-04-23 12:32:00,57.2,38.2,30.38,ENE,74,0.0,4.0,49,0.00,,,0.00,Wunderground v.1.15,2013-04-23 19:32:00,
2013-04-23 12:37:00,56.7,37.2,30.38,ENE,78,0.0,4.0,48,0.00,,,0.00,Wunderground v.1.15,2013-04-23 19:37:00,
2013-04-23 12:42:00,55.5,36.1,30.38,East,96,0.0,1.0,48,0.00,,,0.00,Wunderground v.1.15,2013-04-23 19:42:00,
2013-04-23 12:47:00,56.7,37.2,30.38,East,92,1.0,2.0,48,0.00,,,0.00,Wunderground v.1.15,2013-04-23 19:47:00,
2013-04-23 12:52:00,57.0,37.0,30.38,East,92,0.0,1.0,47,0.00,,,0.00,Wunderground v.1.15,2013-04-23 19:52:00,
2013-04-23 12:57:00,58.2,34.6,30.37,East,90,2.0,2.0,41,0.00,,,0.00,Wunderground v.1.15,2013-04-23 19:57:00,
2013-04-23 13:02:00,59.0,34.7,30.37,East,88,0.0,2.0,40,0.00,,,0.00,Wunderground v.1.15,2013-04-23 20:02:00,
2013-04-23 13:07:00,58.2,34.0,30.37,East,82,2.0,2.0,40,0.00,,,0.00,Wunderground v.1.15,2013-04-23 20:07:00,
2013-04-23 13:12:00,58.2,35.2,30.37,East,80,0.0,2.0,42,0.00,,,0.00,Wunderground v.1.15,2013-04-23 20:12:00,
2013-04-23 13:17:00,58.6,35.6,30.37,East,80,1.0,2.0,42,0.00,,,0.00,Wunderground v.1.15,2013-04-23 20:17:00,
2013-04-23 13:22:00,58.6,36.7,30.37,ENE,78,0.0,3.0,44,0.00,,,0.00,Wunderground v.1.15,2013-04-23 20:22:00,
2013-04-23 13:27:00,59.0,36.5,30.37,ENE,71,0.0,4.0,43,0.00,,,0.00,Wunderground v.1.15,2013-04-23 20:27:00,
2013-04-23 13:32:00,59.0,38.2,30.37,ENE,66,0.0,4.0,46,0.00,,,0.00,Wunderground v.1.15,2013-04-23 20:32:00,
2013-04-23 13:38:00,59.4,38.6,30.36,ENE,61,1.0,4.0,46,0.00,,,0.00,Wunderground v.1.15,2013-04-23 20:38:00,
2013-04-23 13:43:00,59.5,40.3,30.36,NNE,16,1.0,6.0,49,0.00,,,0.00,Wunderground v.1.15,2013-04-23 20:43:00,
2013-04-23 13:48:00,59.4,39.1,30.36,NNW,346,0.0,7.0,47,0.00,,,0.00,Wunderground v.1.15,2013-04-23 20:48:00,
2013-04-23 13:53:00,59.4,39.7,30.36,North,5,4.0,7.0,48,0.00,,,0.00,Wunderground v.1.15,2013-04-23 20:53:00,
2013-04-23 13:58:00,59.5,38.1,30.36,North,355,0.0,7.0,45,0.00,,,0.00,Wunderground v.1.15,2013-04-23 20:58:00,
2013-04-23 14:03:00,60.0,37.4,30.36,NNW,327,5.0,7.0,43,0.00,,,0.00,Wunderground v.1.15,2013-04-23 21:03:00,
2013-04-23 14:08:00,60.0,36.2,30.35,NNW,333,2.0,7.0,41,0.00,,,0.00,Wunderground v.1.15,2013-04-23 21:08:00,
2013-04-23 14:13:00,60.3,34.6,30.35,NNW,346,4.0,6.0,38,0.00,,,0.00,Wunderground v.1.15,2013-04-23 21:13:00,
2013-04-23 14:18:00,59.9,37.9,30.35,NNW,347,5.0,7.0,44,0.00,,,0.00,Wunderground v.1.15,2013-04-23 21:18:00,
2013-04-23 14:23:00,60.4,38.4,30.35,North,350,5.0,6.0,44,0.00,,,0.00,Wunderground v.1.15,2013-04-23 21:23:00,
2013-04-23 14:28:00,60.7,37.5,30.35,NW,323,4.0,8.0,42,0.00,,,0.00,Wunderground v.1.15,2013-04-23 21:28:00,
2013-04-23 14:33:00,60.8,36.9,30.35,NW,324,4.0,6.0,41,0.00,,,0.00,Wunderground v.1.15,2013-04-23 21:33:00,
2013-04-23 14:38:00,60.8,36.3,30.35,NNW,342,4.0,7.0,40,0.00,,,0.00,Wunderground v.1.15,2013-04-23 21:38:00,
2013-04-23 14:43:00,61.2,37.3,30.35,NNW,342,4.0,6.0,41,0.00,,,0.00,Wunderground v.1.15,2013-04-23 21:43:00,
2013-04-23 14:48:00,61.1,34.6,30.35,NNE,23,11.0,11.0,37,0.00,,,0.00,Wunderground v.1.15,2013-04-23 21:48:00,
2013-04-23 14:53:00,60.7,36.8,30.35,NW,321,1.0,9.0,41,0.00,,,0.00,Wunderground v.1.15,2013-04-23 21:53:00,
2013-04-23 14:58:00,61.0,35.2,30.35,NNE,29,5.0,10.0,38,0.00,,,0.00,Wunderground v.1.15,2013-04-23 21:58:00,
2013-04-23 15:03:00,60.7,34.9,30.35,WNW,300,2.0,12.0,38,0.00,,,0.00,Wunderground v.1.15,2013-04-23 22:03:00,
2013-04-23 15:08:00,60.6,34.8,30.35,NW,310,7.0,13.0,38,0.00,,,0.00,Wunderground v.1.15,2013-04-23 22:08:00,
2013-04-23 15:13:00,60.3,34.6,30.34,North,351,7.0,11.0,38,0.00,,,0.00,Wunderground v.1.15,2013-04-23 22:13:00,
2013-04-23 15:18:00,60.2,33.1,30.34,NE,49,5.0,11.0,36,0.00,,,0.00,Wunderground v.1.15,2013-04-23 22:18:00,
2013-04-23 15:23:00,59.9,34.2,30.35,North,11,12.0,14.0,38,0.00,,,0.00,Wunderground v.1.15,2013-04-23 22:23:00,
2013-04-23 15:28:00,59.8,37.8,30.34,North,355,9.0,14.0,44,0.00,,,0.00,Wunderground v.1.15,2013-04-23 22:28:00,
2013-04-23 15:33:00,59.9,36.7,30.34,North,5,3.0,11.0,42,0.00,,,0.00,Wunderground v.1.15,2013-04-23 22:33:00,
2013-04-23 15:38:00,60.1,38.1,30.34,NE,41,4.0,11.0,44,0.00,,,0.00,Wunderground v.1.15,2013-04-23 22:38:00,
2013-04-23 15:43:00,60.1,38.1,30.34,NNW,333,7.0,11.0,44,0.00,,,0.00,Wunderground v.1.15,2013-04-23 22:43:00,
2013-04-23 15:48:00,59.6,38.8,30.34,North,351,4.0,11.0,46,0.00,,,0.00,Wunderground v.1.15,2013-04-23 22:48:00,
2013-04-23 15:53:00,59.7,39.4,30.34,North,351,8.0,11.0,47,0.00,,,0.00,Wunderground v.1.15,2013-04-23 22:53:00,
2013-04-23 15:58:00,59.4,38.6,30.33,WNW,299,9.0,13.0,46,0.00,,,0.00,Wunderground v.1.15,2013-04-23 22:58:00,
2013-04-23 16:03:00,59.8,39.5,30.34,NNW,340,12.0,12.0,47,0.00,,,0.00,Wunderground v.1.15,2013-04-23 23:03:00,
2013-04-23 16:08:00,59.5,38.1,30.33,NNW,328,10.0,12.0,45,0.00,,,0.00,Wunderground v.1.15,2013-04-23 23:08:00,
2013-04-23 16:13:00,59.1,37.2,30.33,North,351,10.0,10.0,44,0.00,,,0.00,Wunderground v.1.15,2013-04-23 23:13:00,
2013-04-23 16:18:00,59.0,39.3,30.33,NNW,342,2.0,11.0,48,0.00,,,0.00,Wunderground v.1.15,2013-04-23 23:18:00,
2013-04-23 16:23:00,59.4,39.1,30.33,West,265,1.0,8.0,47,0.00,,,0.00,Wunderground v.1.15,2013-04-23 23:23:00,
2013-04-23 16:28:00,59.5,38.1,30.32,NW,325,7.0,11.0,45,0.00,,,0.00,Wunderground v.1.15,2013-04-23 23:28:00,
2013-04-23 16:33:00,59.4,39.1,30.32,NNW,327,3.0,9.0,47,0.00,,,0.00,Wunderground v.1.15,2013-04-23 23:33:00,
2013-04-23 16:38:00,59.5,37.6,30.32,NNE,21,3.0,9.0,44,0.00,,,0.00,Wunderground v.1.15,2013-04-23 23:38:00,
2013-04-23 16:43:00,59.4,38.6,30.32,North,9,5.0,10.0,46,0.00,,,0.00,Wunderground v.1.15,2013-04-23 23:43:00,
2013-04-23 16:48:00,59.6,34.6,30.32,NNW,327,3.0,11.0,39,0.00,,,0.00,Wunderground v.1.15,2013-04-23 23:48:00,
2013-04-23 16:53:00,60.0,35.6,30.32,North,360,4.0,12.0,40,0.00,,,0.00,Wunderground v.1.15,2013-04-23 23:53:00,
2013-04-23 16:58:00,59.8,37.8,30.31,WNW,299,6.0,12.0,44,0.00,,,0.00,Wunderground v.1.15,2013-04-23 23:58:00,
2013-04-23 17:03:00,59.3,37.4,30.31,North,9,9.0,13.0,44,0.00,,,0.00,Wunderground v.1.15,2013-04-24 00:03:00,
2013-04-23 17:08:00,59.0,38.2,30.31,North,350,9.0,13.0,46,0.00,,,0.00,Wunderground v.1.15,2013-04-24 00:08:00,
2013-04-23 17:13:00,59.0,35.9,30.31,North,355,10.0,11.0,42,0.00,,,0.00,Wunderground v.1.15,2013-04-24 00:13:00,
2013-04-23 17:18:00,59.1,35.4,30.32,North,355,6.0,12.0,41,0.00,,,0.00,Wunderground v.1.15,2013-04-24 00:18:00,
2013-04-23 17:23:00,59.3,35.6,30.32,NW,306,5.0,11.0,41,0.00,,,0.00,Wunderground v.1.15,2013-04-24 00:23:00,
2013-04-23 17:28:00,59.0,36.5,30.31,NNE,32,2.0,12.0,43,0.00,,,0.00,Wunderground v.1.15,2013-04-24 00:28:00,
2013-04-23 17:33:00,58.6,37.3,30.32,North,360,7.0,12.0,45,0.00,,,0.00,Wunderground v.1.15,2013-04-24 00:33:00,
2013-04-23 17:38:00,58.5,37.2,30.32,WNW,297,6.0,12.0,45,0.00,,,0.00,Wunderground v.1.15,2013-04-24 00:38:00,
2013-04-23 17:43:00,58.4,36.6,30.32,NNW,340,6.0,14.0,44,0.00,,,0.00,Wunderground v.1.15,2013-04-24 00:43:00,
2013-04-23 17:48:00,58.6,36.2,30.32,NNE,27,11.0,14.0,43,0.00,,,0.00,Wunderground v.1.15,2013-04-24 00:48:00,
2013-04-23 17:53:00,58.6,37.3,30.32,NW,321,6.0,12.0,45,0.00,,,0.00,Wunderground v.1.15,2013-04-24 00:53:00,
2013-04-23 17:58:00,58.1,38.0,30.31,North,355,10.0,12.0,47,0.00,,,0.00,Wunderground v.1.15,2013-04-24 00:58:00,
2013-04-23 18:03:00,58.0,37.3,30.31,North,360,6.0,13.0,46,0.00,,,0.00,Wunderground v.1.15,2013-04-24 01:03:00,
2013-04-23 18:08:00,58.0,37.3,30.31,NW,315,7.0,13.0,46,0.00,,,0.00,Wunderground v.1.15,2013-04-24 01:08:00,
2013-04-23 18:13:00,58.0,37.9,30.31,North,360,8.0,12.0,47,0.00,,,0.00,Wunderground v.1.15,2013-04-24 01:13:00,
2013-04-23 18:19:00,58.0,37.9,30.31,WNW,300,5.0,12.0,47,0.00,,,0.00,Wunderground v.1.15,2013-04-24 01:19:00,
2013-04-23 18:24:00,58.1,38.0,30.31,NW,322,8.0,11.0,47,0.00,,,0.00,Wunderground v.1.15,2013-04-24 01:24:00,
2013-04-23 18:28:00,58.4,36.0,30.31,NNW,331,7.0,11.0,43,0.00,,,0.00,Wunderground v.1.15,2013-04-24 01:28:00,
2013-04-23 18:34:00,58.7,36.2,30.31,NW,304,5.0,10.0,43,0.00,,,0.00,Wunderground v.1.15,2013-04-24 01:34:00,
2013-04-23 18:39:00,58.8,38.6,30.31,North,355,6.0,10.0,47,0.00,,,0.00,Wunderground v.1.15,2013-04-24 01:39:00,
2013-04-23 18:44:00,58.5,38.9,30.31,NE,47,9.0,11.0,48,0.00,,,0.00,Wunderground v.1.15,2013-04-24 01:44:00,
2013-04-23 18:49:00,58.1,39.0,30.31,North,5,3.0,11.0,49,0.00,,,0.00,Wunderground v.1.15,2013-04-24 01:49:00,
2013-04-23 18:54:00,57.6,39.6,30.31,North,355,8.0,10.0,51,0.00,,,0.00,Wunderground v.1.15,2013-04-24 01:54:00,
2013-04-23 18:59:00,57.3,39.8,30.31,NNE,25,2.0,10.0,52,0.00,,,0.00,Wunderground v.1.15,2013-04-24 01:59:00,
2013-04-23 19:04:00,56.9,40.4,30.31,NNW,344,7.0,9.0,54,0.00,,,0.00,Wunderground v.1.15,2013-04-24 02:04:00,
2013-04-23 19:09:00,56.5,40.5,30.31,NW,308,8.0,10.0,55,0.00,,,0.00,Wunderground v.1.15,2013-04-24 02:09:00,
2013-04-23 19:14:00,56.1,41.1,30.31,North,5,4.0,10.0,57,0.00,,,0.00,Wunderground v.1.15,2013-04-24 02:14:00,
2013-04-23 19:19:00,55.9,40.4,30.31,NNW,341,6.0,6.0,56,0.00,,,0.00,Wunderground v.1.15,2013-04-24 02:19:00,
2013-04-23 19:25:00,56.0,40.1,30.31,North,11,5.0,6.0,55,0.00,,,0.00,Wunderground v.1.15,2013-04-24 02:25:00,
2013-04-23 19:30:00,56.0,41.4,30.31,NNE,13,3.0,7.0,58,0.00,,,0.00,Wunderground v.1.15,2013-04-24 02:30:00,
2013-04-23 19:36:00,55.8,40.8,30.32,NNW,331,3.0,9.0,57,0.00,,,0.00,Wunderground v.1.15,2013-04-24 02:36:00,
2013-04-23 19:41:00,55.9,40.0,30.31,NW,325,6.0,6.0,55,0.00,,,0.00,Wunderground v.1.15,2013-04-24 02:41:00,
2013-04-23 19:46:00,56.0,39.1,30.32,NW,319,2.0,6.0,53,0.00,,,0.00,Wunderground v.1.15,2013-04-24 02:46:00,
2013-04-23 19:52:00,55.9,40.0,30.32,NW,324,2.0,4.0,55,0.00,,,0.00,Wunderground v.1.15,2013-04-24 02:52:00,
2013-04-23 19:57:00,55.7,39.8,30.32,NW,319,2.0,5.0,55,0.00,,,0.00,Wunderground v.1.15,2013-04-24 02:57:00,
2013-04-23 20:02:00,55.3,40.8,30.32,NW,315,3.0,3.0,58,0.00,,,0.00,Wunderground v.1.15,2013-04-24 03:02:00,
2013-04-23 20:07:00,54.9,40.8,30.32,NW,312,1.0,7.0,59,0.00,,,0.00,Wunderground v.1.15,2013-04-24 03:07:00,
2013-04-23 20:12:00,54.5,41.7,30.32,NW,319,2.0,5.0,62,0.00,,,0.00,Wunderground v.1.15,2013-04-24 03:12:00,
2013-04-23 20:17:00,54.0,42.5,30.32,NNW,331,4.0,7.0,65,0.00,,,0.00,Wunderground v.1.15,2013-04-24 03:17:00,
2013-04-23 20:22:00,53.7,41.8,30.32,North,9,6.0,6.0,64,0.00,,,0.00,Wunderground v.1.15,2013-04-24 03:22:00,
2013-04-23 20:27:00,53.4,41.9,30.33,NNE,13,6.0,6.0,65,0.00,,,0.00,Wunderground v.1.15,2013-04-24 03:27:00,
2013-04-23 20:33:00,53.0,43.5,30.33,NNW,334,5.0,5.0,70,0.00,,,0.00,Wunderground v.1.15,2013-04-24 03:33:00,
2013-04-23 20:38:00,52.6,43.1,30.33,North,360,2.0,5.0,70,0.00,,,0.00,Wunderground v.1.15,2013-04-24 03:38:00,
2013-04-23 20:43:00,52.2,42.0,30.33,North,11,1.0,3.0,68,0.00,,,0.00,Wunderground v.1.15,2013-04-24 03:43:00,
2013-04-23 20:48:00,52.1,42.6,30.33,NNE,19,0.0,3.0,70,0.00,,,0.00,Wunderground v.1.15,2013-04-24 03:48:00,
2013-04-23 20:53:00,51.9,42.8,30.34,North,5,4.0,4.0,71,0.00,,,0.00,Wunderground v.1.15,2013-04-24 03:53:00,
2013-04-23 20:58:00,51.6,42.9,30.34,North,360,3.0,4.0,72,0.00,,,0.00,Wunderground v.1.15,2013-04-24 03:58:00,
2013-04-23 21:01:00,51.5,43.5,30.34,North,360,2.0,4.0,74,0.00,,,0.00,Wunderground v.1.15,2013-04-24 04:01:00,
2013-04-23 21:06:00,51.3,42.2,30.34,NNE,33,3.0,5.0,71,0.00,,,0.00,Wunderground v.1.15,2013-04-24 04:06:00,
2013-04-23 21:11:00,51.4,41.9,30.34,NNE,19,2.0,5.0,70,0.00,,,0.00,Wunderground v.1.15,2013-04-24 04:11:00,
2013-04-23 21:16:00,51.4,43.0,30.34,NNE,29,4.0,6.0,73,0.00,,,0.00,Wunderground v.1.15,2013-04-24 04:16:00,
2013-04-23 21:21:00,51.2,43.2,30.34,NNE,32,1.0,3.0,74,0.00,,,0.00,Wunderground v.1.15,2013-04-24 04:21:00,
2013-04-23 21:26:00,50.9,43.3,30.34,NNE,30,1.0,3.0,75,0.00,,,0.00,Wunderground v.1.15,2013-04-24 04:26:00,
2013-04-23 21:31:00,50.7,42.7,30.34,NNE,17,1.0,3.0,74,0.00,,,0.00,Wunderground v.1.15,2013-04-24 04:31:00,
2013-04-23 21:36:00,50.5,41.8,30.35,North,5,0.0,3.0,72,0.00,,,0.00,Wunderground v.1.15,2013-04-24 04:36:00,
2013-04-23 21:41:00,50.4,41.7,30.35,NNW,338,0.0,0.0,72,0.00,,,0.00,Wunderground v.1.15,2013-04-24 04:41:00,
2013-04-23 21:46:00,50.3,40.9,30.35,NNW,329,0.0,3.0,70,0.00,,,0.00,Wunderground v.1.15,2013-04-24 04:46:00,
2013-04-23 21:51:00,50.1,41.1,30.35,NNW,332,0.0,1.0,71,0.00,,,0.00,Wunderground v.1.15,2013-04-24 04:51:00,
2013-04-23 21:56:00,50.0,41.0,30.35,NNW,330,1.0,2.0,71,0.00,,,0.00,Wunderground v.1.15,2013-04-24 04:56:00,
2013-04-23 22:01:00,50.0,41.0,30.35,NNW,341,1.0,2.0,71,0.00,,,0.00,Wunderground v.1.15,2013-04-24 05:01:00,
2013-04-23 22:06:00,49.7,42.4,30.35,NNW,342,0.0,2.0,76,0.00,,,0.00,Wunderground v.1.15,2013-04-24 05:06:00,
2013-04-23 22:11:00,49.5,42.6,30.36,North,355,1.0,3.0,77,0.00,,,0.00,Wunderground v.1.15,2013-04-24 05:11:00,
2013-04-23 22:16:00,49.2,42.3,30.36,North,351,0.0,3.0,77,0.00,,,0.00,Wunderground v.1.15,2013-04-24 05:16:00,
2013-04-23 22:21:00,48.9,42.0,30.36,North,350,0.0,1.0,77,0.00,,,0.00,Wunderground v.1.15,2013-04-24 05:21:00,
2013-04-23 22:26:00,48.9,41.3,30.36,NNE,22,0.0,4.0,75,0.00,,,0.00,Wunderground v.1.15,2013-04-24 05:26:00,
2013-04-23 22:32:00,48.9,42.0,30.36,North,5,1.0,4.0,77,0.00,,,0.00,Wunderground v.1.15,2013-04-24 05:32:00,
2013-04-23 22:37:00,48.8,42.2,30.36,North,355,2.0,4.0,78,0.00,,,0.00,Wunderground v.1.15,2013-04-24 05:37:00,
2013-04-23 22:42:00,48.7,41.5,30.37,NNW,342,2.0,4.0,76,0.00,,,0.00,Wunderground v.1.15,2013-04-24 05:42:00,
2013-04-23 22:47:00,48.8,40.9,30.36,NNW,348,0.0,4.0,74,0.00,,,0.00,Wunderground v.1.15,2013-04-24 05:47:00,
2013-04-23 22:52:00,49.0,40.7,30.36,North,349,3.0,5.0,73,0.00,,,0.00,Wunderground v.1.15,2013-04-24 05:52:00,
2013-04-23 22:57:00,49.1,40.8,30.36,North,350,3.0,5.0,73,0.00,,,0.00,Wunderground v.1.15,2013-04-24 05:57:00,
2013-04-23 23:02:00,49.2,40.9,30.36,North,355,2.0,3.0,73,0.00,,,0.00,Wunderground v.1.15,2013-04-24 06:02:00,
2013-04-23 23:07:00,49.2,40.6,30.36,NW,318,3.0,4.0,72,0.00,,,0.00,Wunderground v.1.15,2013-04-24 06:07:00,
2013-04-23 23:12:00,49.1,40.8,30.36,NW,320,1.0,5.0,73,0.00,,,0.00,Wunderground v.1.15,2013-04-24 06:12:00,
2013-04-23 23:17:00,49.0,40.7,30.36,NNW,327,0.0,5.0,73,0.00,,,0.00,Wunderground v.1.15,2013-04-24 06:17:00,
2013-04-23 23:22:00,49.0,40.7,30.36,NW,321,0.0,7.0,73,0.00,,,0.00,Wunderground v.1.15,2013-04-24 06:22:00,
2013-04-23 23:27:00,48.9,40.6,30.36,NNW,340,4.0,7.0,73,0.00,,,0.00,Wunderground v.1.15,2013-04-24 06:27:00,
2013-04-23 23:32:00,48.7,40.8,30.36,NW,311,2.0,5.0,74,0.00,,,0.00,Wunderground v.1.15,2013-04-24 06:32:00,
2013-04-23 23:37:00,48.7,40.8,30.36,North,355,0.0,5.0,74,0.00,,,0.00,Wunderground v.1.15,2013-04-24 06:37:00,
2013-04-23 23:42:00,48.5,40.6,30.36,NNW,339,0.0,3.0,74,0.00,,,0.00,Wunderground v.1.15,2013-04-24 06:42:00,
2013-04-23 23:47:00,48.5,40.6,30.36,NW,325,1.0,5.0,74,0.00,,,0.00,Wunderground v.1.15,2013-04-24 06:47:00,
2013-04-23 23:52:00,48.5,40.6,30.36,NW,317,3.0,4.0,74,0.00,,,0.00,Wunderground v.1.15,2013-04-24 06:52:00,
2013-04-23 23:57:00,48.3,40.4,30.36,NNW,331,0.0,4.0,74,0.00,,,0.00,Wunderground v.1.15,2013-04-24 06:57:00,